Thursday, October 02, 2014
10:34 UTC
  |  Log In   |  Register Free
Airport Search:

Tucson International Airport
(KTUS)

FAA data valid effective September 18, 2014 - November 13, 2014 (unless otherwise noted).

 
 
 
 
 
 
 
 
 
 
 
 
 
 

Current Aviation Weather for Tucson International Airport (KTUS)

The most recent METAR observation for KTUS was updated at: 1021
METAR Summary (Translated METAR)
KTUS
020953Z AUTO 15005KT 10SM CLR 17/07 A2998 RMK AO2 SLP111 T01720067
KDMA
020958Z AUTO 15006KT 10SM CLR 16/05 A2997 RMK AO2 SLP112 T01610051 $
(4.2 nm NE from KTUS)
KRYN
020245Z 27005KT 10SM CLR 26/06 A2990
(12 nm NW from KTUS)
TAF Summary (Translated TAF)
KTUS
020520Z 0206/0306 VRB03KT P6SM SKC FM020700 14007KT P6SM SKC FM022000 32008KT P6SM SKC
KDMA
(4.2 nm NE from KTUS)
0205/0311 VRB06KT 9999 SKC QNH2990INS BECMG 0218/0219 31009KT 9999 SKC QNH2983INS TEMPO 0221/0302 32012G18KT BECMG 0302/0303 VRB06KT 9999 SKC QNH2988INS TX31/0223Z TN13/0213Z
  Airport Weather Conditions for KTUS

 Current Weather at TUS
63° F
Fair
Southeast winds at 5.8 mph
TUS NOAA Radar

Pressure: 29.98 in
Humidity: 50%
Wind: Southeast at 5.8 MPH (5 KT)
Dew Point: 44.1°F
Visibility: 10.00 mi


Airport Weather Forecast for KTUS

Translated METAR and TAF for KTUS
Translated METAR for KTUS (1028 UTC 02 October 2014)
found at http://aviationweather.gov/adds/metars/
 
METAR text: KTUS 020953Z AUTO 15005KT 10SM CLR 17/07 A2998 RMK AO2 SLP111 T01720067
Conditions at: KTUS (TUCSON , AZ, US) observed 0953 UTC 02 October 2014
Temperature: 17.2°C (63°F)
Dewpoint: 6.7°C (44°F) [RH = 50%]
Pressure (altimeter): 29.98 inches Hg (1015.3 mb)
[Sea-level pressure: 1011.1 mb]
Winds: from the SSE (150 degrees) at 6 MPH (5 knots; 2.6 m/s)
Visibility: 10 or more miles (16+ km)
Ceiling: at least 12,000 feet AGL
Clouds: sky clear below 12,000 feet AGL
Weather: automated observation with no human augmentation;
there may or may not be significant weather present at this time
Translated TAF for KTUS
Forecast for: KTUS (TUCSON , AZ, US)
TAF Text: KTUS 020520Z 0206/0306 VRB03KT P6SM SKC
Forecast period: 0600 to 0700 UTC 02 October 2014
Forecast type: FROM: standard forecast or significant change
Winds: variable direction winds at 3 MPH (3 knots; 1.6 m/s)
Visibility: 6 or more miles (10+ km)
Clouds: clear skies
Weather: no significant weather forecast for this period
TAF Text: FM020700 14007KT P6SM SKC
Forecast period: 0700 to 2000 UTC 02 October 2014
Forecast type: FROM: standard forecast or significant change
Winds: from the SE (140 degrees) at 8 MPH (7 knots; 3.6 m/s)
Visibility: 6 or more miles (10+ km)
Clouds: clear skies
Weather: no significant weather forecast for this period
TAF Text: FM022000 32008KT P6SM SKC
Forecast period: 2000 UTC 02 October 2014 to 0600 UTC 03 October 2014
Forecast type: FROM: standard forecast or significant change
Winds: from the NW (320 degrees) at 9 MPH (8 knots; 4.2 m/s)
Visibility: 6 or more miles (10+ km)
Clouds: clear skies
Weather: no significant weather forecast for this period

Find All Airport Services Find A Hotel Find A Rental Car Find A Golf Course Find A Restaurant $100 Hamburger



FBO's on the Field
FBO Company Facility Photos Services Transportation Aviation Fuel Prices: Prices include tax
Catering Weather Repair Courtesy Rental Type 100LL JetA JetA+ MOGAS 8087
 
Bombardier Aerospace

Bombardier Aerospace logo
This FBO has not yet been rated
FS:
Last Updated: Sep-08
Login to update fuel prices
SS:
Contact Bombardier AerospaceMore FBO Information
 
Atlantic Aviation

Currently rated 4.6 by 2 people
FS:Texaco
Last Updated: Oct-01
Login to update fuel prices
SS:
Contact Atlantic AviationMore FBO Information
 
Million Air

This FBO has not yet been rated
FS:Independent
Last Updated: Aug-26
Login to update fuel prices
SS:
Contact Million AirMore FBO Information
 
Million Air Tucson

Currently rated 2.2 by 3 people
FS:Independent
Last Updated: Sep-25
Login to update fuel prices
SS:
Contact Million Air TucsonMore FBO Information
 
Tucson Jet Center

Currently rated 4.4 by 3 people
FS:Independent
Last Updated: Sep-23
Login to update fuel prices
SS:
Contact Tucson Jet CenterMore FBO Information
 
Velocity Air Inc.

This FBO has not yet been rated
FS:Ascent
Last Updated: Sep-19
Login to update fuel prices
SS:
Contact Velocity Air Inc.More FBO Information
 
Add another FBO Facility Photos Catering Weather Repair Courtesy Rental Type 100LL JetA JetA+ MOGAS 8087
Services Transportation Aviation Fuel Prices: Prices include tax


model-print
model-print
model-print
model-print